sensor_id;sensor_type;location;lat;lon;timestamp;temperature;humidity
23311;DHT22;11828;51.508;18.118;2022-10-22T00:01:33;27.20;37.30
23311;DHT22;11828;51.508;18.118;2022-10-22T00:03:59;27.10;37.10
23311;DHT22;11828;51.508;18.118;2022-10-22T00:06:25;27.10;37.20
23311;DHT22;11828;51.508;18.118;2022-10-22T00:08:52;27.10;37.30
23311;DHT22;11828;51.508;18.118;2022-10-22T00:11:18;27.10;37.00
23311;DHT22;11828;51.508;18.118;2022-10-22T00:13:45;27.20;36.80
23311;DHT22;11828;51.508;18.118;2022-10-22T00:16:12;27.40;36.60
23311;DHT22;11828;51.508;18.118;2022-10-22T00:18:39;27.30;36.60
23311;DHT22;11828;51.508;18.118;2022-10-22T00:21:05;27.30;36.50
23311;DHT22;11828;51.508;18.118;2022-10-22T00:23:32;27.20;36.50
23311;DHT22;11828;51.508;18.118;2022-10-22T00:25:58;27.10;36.60
23311;DHT22;11828;51.508;18.118;2022-10-22T00:28:24;27.10;36.70
23311;DHT22;11828;51.508;18.118;2022-10-22T00:30:57;27.10;36.70
23311;DHT22;11828;51.508;18.118;2022-10-22T00:33:26;27.00;36.60
23311;DHT22;11828;51.508;18.118;2022-10-22T00:35:53;27.00;36.60
23311;DHT22;11828;51.508;18.118;2022-10-22T00:38:20;27.10;36.60
23311;DHT22;11828;51.508;18.118;2022-10-22T00:40:46;27.00;36.50
23311;DHT22;11828;51.508;18.118;2022-10-22T00:43:16;27.00;36.60
23311;DHT22;11828;51.508;18.118;2022-10-22T00:45:44;27.00;36.60
23311;DHT22;11828;51.508;18.118;2022-10-22T00:48:12;27.00;36.50
23311;DHT22;11828;51.508;18.118;2022-10-22T00:50:51;27.00;36.70
23311;DHT22;11828;51.508;18.118;2022-10-22T00:53:32;26.80;36.90
23311;DHT22;11828;51.508;18.118;2022-10-22T00:56:01;26.80;36.90
23311;DHT22;11828;51.508;18.118;2022-10-22T00:58:30;26.60;37.10
23311;DHT22;11828;51.508;18.118;2022-10-22T01:00:58;26.60;37.10
23311;DHT22;11828;51.508;18.118;2022-10-22T01:03:24;26.60;37.10
23311;DHT22;11828;51.508;18.118;2022-10-22T01:06:00;26.80;36.90
23311;DHT22;11828;51.508;18.118;2022-10-22T01:11:14;26.90;36.50
23311;DHT22;11828;51.508;18.118;2022-10-22T01:13:56;26.80;36.40
23311;DHT22;11828;51.508;18.118;2022-10-22T01:30:18;26.50;36.30
23311;DHT22;11828;51.508;18.118;2022-10-22T01:32:50;26.40;36.50
23311;DHT22;11828;51.508;18.118;2022-10-22T01:35:24;26.30;36.60
23311;DHT22;11828;51.508;18.118;2022-10-22T01:38:00;26.20;36.60
23311;DHT22;11828;51.508;18.118;2022-10-22T01:40:29;26.20;36.40
23311;DHT22;11828;51.508;18.118;2022-10-22T01:43:05;26.30;36.30
23311;DHT22;11828;51.508;18.118;2022-10-22T01:45:38;26.30;36.30
23311;DHT22;11828;51.508;18.118;2022-10-22T01:51:29;26.10;36.20
23311;DHT22;11828;51.508;18.118;2022-10-22T01:57:14;26.10;36.30
23311;DHT22;11828;51.508;18.118;2022-10-22T02:00:08;26.10;36.30
23311;DHT22;11828;51.508;18.118;2022-10-22T02:02:55;26.10;36.20
23311;DHT22;11828;51.508;18.118;2022-10-22T02:05:39;26.20;36.10
23311;DHT22;11828;51.508;18.118;2022-10-22T02:08:12;26.10;36.10
23311;DHT22;11828;51.508;18.118;2022-10-22T02:10:43;26.10;36.20
23311;DHT22;11828;51.508;18.118;2022-10-22T02:13:16;26.00;36.10
23311;DHT22;11828;51.508;18.118;2022-10-22T02:15:45;26.00;36.20
23311;DHT22;11828;51.508;18.118;2022-10-22T02:18:12;26.00;36.20
23311;DHT22;11828;51.508;18.118;2022-10-22T02:20:40;25.80;36.20
23311;DHT22;11828;51.508;18.118;2022-10-22T02:23:08;25.90;36.30
23311;DHT22;11828;51.508;18.118;2022-10-22T02:25:37;25.90;36.30
23311;DHT22;11828;51.508;18.118;2022-10-22T02:31:27;26.00;36.30
23311;DHT22;11828;51.508;18.118;2022-10-22T02:33:58;26.10;36.20
23311;DHT22;11828;51.508;18.118;2022-10-22T02:36:27;26.20;35.90
23311;DHT22;11828;51.508;18.118;2022-10-22T02:38:54;26.30;36.00
23311;DHT22;11828;51.508;18.118;2022-10-22T02:41:20;26.40;35.80
23311;DHT22;11828;51.508;18.118;2022-10-22T02:43:53;26.50;35.60
23311;DHT22;11828;51.508;18.118;2022-10-22T02:46:20;26.50;35.50
23311;DHT22;11828;51.508;18.118;2022-10-22T02:48:46;26.70;35.20
23311;DHT22;11828;51.508;18.118;2022-10-22T02:51:12;26.70;35.10
23311;DHT22;11828;51.508;18.118;2022-10-22T02:53:38;26.70;35.20
23311;DHT22;11828;51.508;18.118;2022-10-22T02:56:06;26.70;35.30
23311;DHT22;11828;51.508;18.118;2022-10-22T02:58:32;26.70;35.40
23311;DHT22;11828;51.508;18.118;2022-10-22T03:00:58;26.60;35.30
23311;DHT22;11828;51.508;18.118;2022-10-22T03:03:24;26.60;35.40
23311;DHT22;11828;51.508;18.118;2022-10-22T03:05:50;26.50;35.40
23311;DHT22;11828;51.508;18.118;2022-10-22T03:08:17;26.60;35.50
23311;DHT22;11828;51.508;18.118;2022-10-22T03:10:43;26.70;35.30
23311;DHT22;11828;51.508;18.118;2022-10-22T03:13:09;26.70;35.30
23311;DHT22;11828;51.508;18.118;2022-10-22T03:15:35;26.60;35.30
23311;DHT22;11828;51.508;18.118;2022-10-22T03:18:01;26.60;35.40
23311;DHT22;11828;51.508;18.118;2022-10-22T03:20:28;26.50;35.50
23311;DHT22;11828;51.508;18.118;2022-10-22T03:22:55;26.30;35.50
23311;DHT22;11828;51.508;18.118;2022-10-22T03:25:23;26.10;35.80
23311;DHT22;11828;51.508;18.118;2022-10-22T03:27:51;26.10;35.80
23311;DHT22;11828;51.508;18.118;2022-10-22T03:30:18;26.10;35.90
23311;DHT22;11828;51.508;18.118;2022-10-22T03:32:44;26.20;35.70
23311;DHT22;11828;51.508;18.118;2022-10-22T03:35:10;26.40;35.60
23311;DHT22;11828;51.508;18.118;2022-10-22T03:37:37;26.40;35.50
23311;DHT22;11828;51.508;18.118;2022-10-22T03:40:05;26.40;35.50
23311;DHT22;11828;51.508;18.118;2022-10-22T03:42:32;26.50;35.30
23311;DHT22;11828;51.508;18.118;2022-10-22T03:44:58;26.50;35.20
23311;DHT22;11828;51.508;18.118;2022-10-22T03:47:24;26.70;35.00
23311;DHT22;11828;51.508;18.118;2022-10-22T03:49:51;26.60;34.90
23311;DHT22;11828;51.508;18.118;2022-10-22T03:52:17;26.50;35.00
23311;DHT22;11828;51.508;18.118;2022-10-22T03:54:43;26.60;35.00
23311;DHT22;11828;51.508;18.118;2022-10-22T03:57:10;26.60;35.10
23311;DHT22;11828;51.508;18.118;2022-10-22T03:59:38;26.50;35.20
23311;DHT22;11828;51.508;18.118;2022-10-22T04:02:06;26.60;35.00
23311;DHT22;11828;51.508;18.118;2022-10-22T04:04:32;26.50;35.20
23311;DHT22;11828;51.508;18.118;2022-10-22T04:06:58;26.30;35.30
23311;DHT22;11828;51.508;18.118;2022-10-22T04:09:24;26.40;35.60
23311;DHT22;11828;51.508;18.118;2022-10-22T04:11:50;26.50;35.30
23311;DHT22;11828;51.508;18.118;2022-10-22T04:14:17;26.80;35.00
23311;DHT22;11828;51.508;18.118;2022-10-22T04:16:43;26.90;34.70
23311;DHT22;11828;51.508;18.118;2022-10-22T04:19:09;27.00;34.60
23311;DHT22;11828;51.508;18.118;2022-10-22T04:21:35;27.00;34.40
23311;DHT22;11828;51.508;18.118;2022-10-22T04:24:01;26.90;34.60
23311;DHT22;11828;51.508;18.118;2022-10-22T04:26:27;26.90;34.50
23311;DHT22;11828;51.508;18.118;2022-10-22T04:28:53;26.80;34.60
23311;DHT22;11828;51.508;18.118;2022-10-22T04:31:22;26.80;34.70
23311;DHT22;11828;51.508;18.118;2022-10-22T04:33:57;26.70;34.70
23311;DHT22;11828;51.508;18.118;2022-10-22T04:36:24;26.60;34.80
23311;DHT22;11828;51.508;18.118;2022-10-22T04:38:56;26.50;35.10
23311;DHT22;11828;51.508;18.118;2022-10-22T04:41:29;26.50;35.20
23311;DHT22;11828;51.508;18.118;2022-10-22T04:43:59;26.50;35.30
23311;DHT22;11828;51.508;18.118;2022-10-22T04:46:28;26.60;35.20
23311;DHT22;11828;51.508;18.118;2022-10-22T04:48:56;26.60;35.10
23311;DHT22;11828;51.508;18.118;2022-10-22T04:51:23;26.60;35.00
23311;DHT22;11828;51.508;18.118;2022-10-22T04:53:50;26.60;35.00
23311;DHT22;11828;51.508;18.118;2022-10-22T04:56:27;26.60;35.00
23311;DHT22;11828;51.508;18.118;2022-10-22T04:58:57;26.70;35.10
23311;DHT22;11828;51.508;18.118;2022-10-22T05:01:26;26.70;35.10
23311;DHT22;11828;51.508;18.118;2022-10-22T05:03:54;26.60;35.00
23311;DHT22;11828;51.508;18.118;2022-10-22T05:06:22;26.80;34.90
23311;DHT22;11828;51.508;18.118;2022-10-22T05:08:54;26.80;34.80
23311;DHT22;11828;51.508;18.118;2022-10-22T05:11:25;26.90;34.80
23311;DHT22;11828;51.508;18.118;2022-10-22T05:13:57;27.00;34.70
23311;DHT22;11828;51.508;18.118;2022-10-22T05:16:26;27.10;34.50
23311;DHT22;11828;51.508;18.118;2022-10-22T05:18:53;27.20;34.50
23311;DHT22;11828;51.508;18.118;2022-10-22T05:21:20;27.30;34.30
23311;DHT22;11828;51.508;18.118;2022-10-22T05:23:48;27.30;34.30
23311;DHT22;11828;51.508;18.118;2022-10-22T05:26:18;27.30;34.20
23311;DHT22;11828;51.508;18.118;2022-10-22T05:28:47;27.50;34.10
23311;DHT22;11828;51.508;18.118;2022-10-22T05:31:14;27.60;33.80
23311;DHT22;11828;51.508;18.118;2022-10-22T05:33:41;27.70;33.80
23311;DHT22;11828;51.508;18.118;2022-10-22T05:36:12;27.80;33.60
23311;DHT22;11828;51.508;18.118;2022-10-22T05:38:39;27.90;33.50
23311;DHT22;11828;51.508;18.118;2022-10-22T05:41:07;28.00;33.30
23311;DHT22;11828;51.508;18.118;2022-10-22T05:43:35;28.00;33.20
23311;DHT22;11828;51.508;18.118;2022-10-22T05:46:03;28.00;33.20
23311;DHT22;11828;51.508;18.118;2022-10-22T05:48:34;27.90;33.50
23311;DHT22;11828;51.508;18.118;2022-10-22T05:51:02;27.80;33.70
23311;DHT22;11828;51.508;18.118;2022-10-22T05:53:31;27.80;33.80
23311;DHT22;11828;51.508;18.118;2022-10-22T05:56:07;27.80;34.00
23311;DHT22;11828;51.508;18.118;2022-10-22T05:58:36;27.60;34.10
23311;DHT22;11828;51.508;18.118;2022-10-22T06:01:04;27.80;34.10
23311;DHT22;11828;51.508;18.118;2022-10-22T06:03:32;27.90;34.00
23311;DHT22;11828;51.508;18.118;2022-10-22T06:06:13;28.10;33.90
23311;DHT22;11828;51.508;18.118;2022-10-22T06:08:50;28.20;33.80
23311;DHT22;11828;51.508;18.118;2022-10-22T06:11:18;28.30;33.50
23311;DHT22;11828;51.508;18.118;2022-10-22T06:13:45;28.30;33.50
23311;DHT22;11828;51.508;18.118;2022-10-22T06:16:11;28.20;33.60
23311;DHT22;11828;51.508;18.118;2022-10-22T06:18:37;28.00;34.10
23311;DHT22;11828;51.508;18.118;2022-10-22T06:21:12;27.90;34.40
23311;DHT22;11828;51.508;18.118;2022-10-22T06:23:40;27.70;34.70
23311;DHT22;11828;51.508;18.118;2022-10-22T06:26:07;27.70;35.00
23311;DHT22;11828;51.508;18.118;2022-10-22T06:28:34;27.70;35.10
23311;DHT22;11828;51.508;18.118;2022-10-22T06:31:02;27.60;35.20
23311;DHT22;11828;51.508;18.118;2022-10-22T06:33:31;27.60;35.40
23311;DHT22;11828;51.508;18.118;2022-10-22T06:36:17;27.60;35.40
23311;DHT22;11828;51.508;18.118;2022-10-22T06:38:45;27.60;35.50
23311;DHT22;11828;51.508;18.118;2022-10-22T06:41:13;27.70;35.50
23311;DHT22;11828;51.508;18.118;2022-10-22T06:43:42;27.80;35.40
23311;DHT22;11828;51.508;18.118;2022-10-22T06:46:14;27.80;35.40
23311;DHT22;11828;51.508;18.118;2022-10-22T06:48:42;27.90;35.20
23311;DHT22;11828;51.508;18.118;2022-10-22T06:51:10;28.00;35.00
23311;DHT22;11828;51.508;18.118;2022-10-22T06:53:38;28.20;34.90
23311;DHT22;11828;51.508;18.118;2022-10-22T06:56:08;28.30;34.60
23311;DHT22;11828;51.508;18.118;2022-10-22T06:58:37;28.30;34.70
23311;DHT22;11828;51.508;18.118;2022-10-22T07:01:08;28.20;34.70
23311;DHT22;11828;51.508;18.118;2022-10-22T07:03:37;28.30;34.70
23311;DHT22;11828;51.508;18.118;2022-10-22T07:06:08;28.20;34.60
23311;DHT22;11828;51.508;18.118;2022-10-22T07:08:35;28.30;34.50
23311;DHT22;11828;51.508;18.118;2022-10-22T07:13:34;28.30;34.90
23311;DHT22;11828;51.508;18.118;2022-10-22T07:16:01;28.40;34.60
23311;DHT22;11828;51.508;18.118;2022-10-22T07:18:27;27.70;34.10
23311;DHT22;11828;51.508;18.118;2022-10-22T07:20:54;28.50;34.60
23311;DHT22;11828;51.508;18.118;2022-10-22T07:23:20;28.60;34.60
23311;DHT22;11828;51.508;18.118;2022-10-22T07:25:46;28.60;34.40
23311;DHT22;11828;51.508;18.118;2022-10-22T07:28:13;28.60;34.50
23311;DHT22;11828;51.508;18.118;2022-10-22T07:30:39;28.60;34.50
23311;DHT22;11828;51.508;18.118;2022-10-22T07:33:06;28.70;34.30
23311;DHT22;11828;51.508;18.118;2022-10-22T07:35:32;28.80;34.20
23311;DHT22;11828;51.508;18.118;2022-10-22T07:37:59;28.80;34.30
23311;DHT22;11828;51.508;18.118;2022-10-22T07:40:25;28.80;34.20
23311;DHT22;11828;51.508;18.118;2022-10-22T07:42:52;28.80;34.20
23311;DHT22;11828;51.508;18.118;2022-10-22T07:45:18;28.90;34.20
23311;DHT22;11828;51.508;18.118;2022-10-22T07:47:46;29.00;34.10
23311;DHT22;11828;51.508;18.118;2022-10-22T07:50:12;29.10;34.00
23311;DHT22;11828;51.508;18.118;2022-10-22T07:52:39;29.20;33.90
23311;DHT22;11828;51.508;18.118;2022-10-22T07:55:05;29.30;33.80
23311;DHT22;11828;51.508;18.118;2022-10-22T07:57:32;29.30;33.60
23311;DHT22;11828;51.508;18.118;2022-10-22T07:59:58;29.40;33.60
23311;DHT22;11828;51.508;18.118;2022-10-22T08:02:24;29.50;33.50
23311;DHT22;11828;51.508;18.118;2022-10-22T08:04:50;29.60;33.50
23311;DHT22;11828;51.508;18.118;2022-10-22T08:07:17;29.60;33.40
23311;DHT22;11828;51.508;18.118;2022-10-22T08:09:43;29.70;33.30
23311;DHT22;11828;51.508;18.118;2022-10-22T08:12:10;29.80;33.20
23311;DHT22;11828;51.508;18.118;2022-10-22T08:14:36;29.90;33.10
23311;DHT22;11828;51.508;18.118;2022-10-22T08:17:02;29.90;33.00
23311;DHT22;11828;51.508;18.118;2022-10-22T08:19:28;30.00;33.00
23311;DHT22;11828;51.508;18.118;2022-10-22T08:21:57;30.20;33.00
23311;DHT22;11828;51.508;18.118;2022-10-22T08:24:24;30.20;33.00
23311;DHT22;11828;51.508;18.118;2022-10-22T08:26:52;30.30;32.90
23311;DHT22;11828;51.508;18.118;2022-10-22T08:29:21;30.40;32.80
23311;DHT22;11828;51.508;18.118;2022-10-22T08:31:49;30.50;32.70
23311;DHT22;11828;51.508;18.118;2022-10-22T08:34:15;30.60;32.70
23311;DHT22;11828;51.508;18.118;2022-10-22T08:36:42;30.70;32.60
23311;DHT22;11828;51.508;18.118;2022-10-22T08:39:08;30.80;32.60
23311;DHT22;11828;51.508;18.118;2022-10-22T08:41:43;30.80;32.70
23311;DHT22;11828;51.508;18.118;2022-10-22T08:50:48;30.90;32.70
23311;DHT22;11828;51.508;18.118;2022-10-22T08:53:20;30.90;32.70
23311;DHT22;11828;51.508;18.118;2022-10-22T08:55:52;30.90;32.90
23311;DHT22;11828;51.508;18.118;2022-10-22T08:58:46;31.00;32.80
23311;DHT22;11828;51.508;18.118;2022-10-22T09:01:21;30.90;32.70
23311;DHT22;11828;51.508;18.118;2022-10-22T09:04:04;30.90;32.80
23311;DHT22;11828;51.508;18.118;2022-10-22T09:06:37;30.90;32.70
23311;DHT22;11828;51.508;18.118;2022-10-22T09:09:11;30.90;32.90
23311;DHT22;11828;51.508;18.118;2022-10-22T09:11:43;30.90;32.70
23311;DHT22;11828;51.508;18.118;2022-10-22T09:14:23;30.90;32.80
23311;DHT22;11828;51.508;18.118;2022-10-22T09:17:11;30.90;33.10
23311;DHT22;11828;51.508;18.118;2022-10-22T09:27:46;30.70;33.40
23311;DHT22;11828;51.508;18.118;2022-10-22T09:30:18;30.50;33.40
23311;DHT22;11828;51.508;18.118;2022-10-22T09:32:51;30.40;33.60
23311;DHT22;11828;51.508;18.118;2022-10-22T09:35:22;30.00;33.60
23311;DHT22;11828;51.508;18.118;2022-10-22T09:37:53;29.80;34.10
23311;DHT22;11828;51.508;18.118;2022-10-22T09:40:21;29.70;34.50
23311;DHT22;11828;51.508;18.118;2022-10-22T09:42:48;29.60;34.70
23311;DHT22;11828;51.508;18.118;2022-10-22T09:45:20;29.70;34.50
23311;DHT22;11828;51.508;18.118;2022-10-22T09:47:48;29.60;34.60
23311;DHT22;11828;51.508;18.118;2022-10-22T09:55:55;29.60;34.50
23311;DHT22;11828;51.508;18.118;2022-10-22T09:58:23;29.70;34.40
23311;DHT22;11828;51.508;18.118;2022-10-22T10:00:56;29.60;34.40
23311;DHT22;11828;51.508;18.118;2022-10-22T10:03:30;29.60;34.40
23311;DHT22;11828;51.508;18.118;2022-10-22T10:06:00;29.70;34.50
23311;DHT22;11828;51.508;18.118;2022-10-22T10:08:27;29.80;34.30
23311;DHT22;11828;51.508;18.118;2022-10-22T10:11:11;29.90;34.30
23311;DHT22;11828;51.508;18.118;2022-10-22T10:19:38;29.70;34.20
23311;DHT22;11828;51.508;18.118;2022-10-22T10:27:34;29.50;34.50
23311;DHT22;11828;51.508;18.118;2022-10-22T10:30:17;29.40;34.60
23311;DHT22;11828;51.508;18.118;2022-10-22T10:33:15;29.40;34.70
23311;DHT22;11828;51.508;18.118;2022-10-22T10:44:59;29.80;34.60
23311;DHT22;11828;51.508;18.118;2022-10-22T10:47:45;30.00;34.80
23311;DHT22;11828;51.508;18.118;2022-10-22T10:50:39;30.10;34.60
23311;DHT22;11828;51.508;18.118;2022-10-22T10:56:38;30.20;34.60
23311;DHT22;11828;51.508;18.118;2022-10-22T11:05:44;30.50;34.40
23311;DHT22;11828;51.508;18.118;2022-10-22T11:08:20;30.70;34.20
23311;DHT22;11828;51.508;18.118;2022-10-22T11:16:03;30.90;34.00
23311;DHT22;11828;51.508;18.118;2022-10-22T11:18:46;31.00;33.80
23311;DHT22;11828;51.508;18.118;2022-10-22T11:27:03;31.10;33.70
23311;DHT22;11828;51.508;18.118;2022-10-22T11:29:36;31.10;33.60
23311;DHT22;11828;51.508;18.118;2022-10-22T11:32:14;31.20;33.50
23311;DHT22;11828;51.508;18.118;2022-10-22T11:34:55;31.30;33.60
23311;DHT22;11828;51.508;18.118;2022-10-22T11:37:25;31.40;33.60
23311;DHT22;11828;51.508;18.118;2022-10-22T11:39:57;31.50;33.30
23311;DHT22;11828;51.508;18.118;2022-10-22T11:42:37;31.60;33.10
23311;DHT22;11828;51.508;18.118;2022-10-22T11:50:23;31.50;33.20
23311;DHT22;11828;51.508;18.118;2022-10-22T11:53:00;31.50;33.40
23311;DHT22;11828;51.508;18.118;2022-10-22T11:55:43;31.40;33.70
23311;DHT22;11828;51.508;18.118;2022-10-22T12:03:40;31.30;33.80
23311;DHT22;11828;51.508;18.118;2022-10-22T12:14:18;31.10;34.70
23311;DHT22;11828;51.508;18.118;2022-10-22T12:19:25;31.10;35.00
23311;DHT22;11828;51.508;18.118;2022-10-22T12:24:36;31.00;35.00
23311;DHT22;11828;51.508;18.118;2022-10-22T12:29:46;31.00;35.30
23311;DHT22;11828;51.508;18.118;2022-10-22T12:32:14;31.00;35.40
23311;DHT22;11828;51.508;18.118;2022-10-22T12:34:48;31.00;35.40
23311;DHT22;11828;51.508;18.118;2022-10-22T12:37:16;30.90;35.40
23311;DHT22;11828;51.508;18.118;2022-10-22T12:39:44;30.90;35.50
23311;DHT22;11828;51.508;18.118;2022-10-22T12:42:14;30.80;35.60
23311;DHT22;11828;51.508;18.118;2022-10-22T12:44:43;30.80;35.70
23311;DHT22;11828;51.508;18.118;2022-10-22T12:47:14;30.80;35.70
23311;DHT22;11828;51.508;18.118;2022-10-22T12:49:45;30.80;35.90
23311;DHT22;11828;51.508;18.118;2022-10-22T12:52:19;30.80;35.90
23311;DHT22;11828;51.508;18.118;2022-10-22T12:54:48;30.90;36.00
23311;DHT22;11828;51.508;18.118;2022-10-22T12:57:18;30.90;35.80
23311;DHT22;11828;51.508;18.118;2022-10-22T12:59:50;31.00;35.90
23311;DHT22;11828;51.508;18.118;2022-10-22T13:02:22;31.00;36.00
23311;DHT22;11828;51.508;18.118;2022-10-22T13:08:01;31.00;36.20
23311;DHT22;11828;51.508;18.118;2022-10-22T13:10:35;31.00;36.10
23311;DHT22;11828;51.508;18.118;2022-10-22T13:13:03;31.00;35.90
23311;DHT22;11828;51.508;18.118;2022-10-22T13:18:22;31.00;36.10
23311;DHT22;11828;51.508;18.118;2022-10-22T13:21:01;31.00;36.50
23311;DHT22;11828;51.508;18.118;2022-10-22T13:23:30;31.00;36.30
23311;DHT22;11828;51.508;18.118;2022-10-22T13:31:22;30.50;47.60
23311;DHT22;11828;51.508;18.118;2022-10-22T13:33:58;29.90;44.10
23311;DHT22;11828;51.508;18.118;2022-10-22T13:36:31;29.50;37.80
23311;DHT22;11828;51.508;18.118;2022-10-22T13:38:58;29.90;38.60
23311;DHT22;11828;51.508;18.118;2022-10-22T13:41:26;29.70;45.00
23311;DHT22;11828;51.508;18.118;2022-10-22T13:43:54;29.50;38.20
23311;DHT22;11828;51.508;18.118;2022-10-22T13:46:21;29.80;47.90
23311;DHT22;11828;51.508;18.118;2022-10-22T13:48:49;29.40;38.10
23311;DHT22;11828;51.508;18.118;2022-10-22T13:51:35;29.40;38.20
23311;DHT22;11828;51.508;18.118;2022-10-22T13:54:03;29.30;39.80
23311;DHT22;11828;51.508;18.118;2022-10-22T13:59:04;29.00;43.00
23311;DHT22;11828;51.508;18.118;2022-10-22T14:01:30;29.60;43.20
23311;DHT22;11828;51.508;18.118;2022-10-22T14:03:58;29.20;40.90
23311;DHT22;11828;51.508;18.118;2022-10-22T14:06:29;29.30;42.10
23311;DHT22;11828;51.508;18.118;2022-10-22T14:09:04;29.30;38.50
23311;DHT22;11828;51.508;18.118;2022-10-22T14:16:30;29.10;42.20
23311;DHT22;11828;51.508;18.118;2022-10-22T14:18:58;29.00;42.40
23311;DHT22;11828;51.508;18.118;2022-10-22T14:21:32;29.40;52.40
23311;DHT22;11828;51.508;18.118;2022-10-22T14:24:00;29.20;39.40
23311;DHT22;11828;51.508;18.118;2022-10-22T14:26:29;29.30;39.40
23311;DHT22;11828;51.508;18.118;2022-10-22T14:28:59;29.40;39.30
23311;DHT22;11828;51.508;18.118;2022-10-22T14:31:26;29.60;39.40
23311;DHT22;11828;51.508;18.118;2022-10-22T14:33:52;29.70;39.10
23311;DHT22;11828;51.508;18.118;2022-10-22T14:36:19;29.80;38.90
23311;DHT22;11828;51.508;18.118;2022-10-22T14:38:46;29.90;38.80
23311;DHT22;11828;51.508;18.118;2022-10-22T14:41:21;30.00;38.70
23311;DHT22;11828;51.508;18.118;2022-10-22T14:43:50;30.10;38.70
23311;DHT22;11828;51.508;18.118;2022-10-22T14:46:17;30.10;38.50
23311;DHT22;11828;51.508;18.118;2022-10-22T14:48:43;30.00;38.60
23311;DHT22;11828;51.508;18.118;2022-10-22T14:51:17;30.00;38.40
23311;DHT22;11828;51.508;18.118;2022-10-22T14:53:46;30.10;38.60
23311;DHT22;11828;51.508;18.118;2022-10-22T14:56:15;30.10;38.60
23311;DHT22;11828;51.508;18.118;2022-10-22T14:58:43;30.10;38.50
23311;DHT22;11828;51.508;18.118;2022-10-22T15:01:10;30.10;38.40
23311;DHT22;11828;51.508;18.118;2022-10-22T15:03:36;30.20;38.50
23311;DHT22;11828;51.508;18.118;2022-10-22T15:06:02;30.20;38.50
23311;DHT22;11828;51.508;18.118;2022-10-22T15:08:29;30.00;49.10
23311;DHT22;11828;51.508;18.118;2022-10-22T15:13:32;30.00;38.40
23311;DHT22;11828;51.508;18.118;2022-10-22T15:15:59;29.90;38.50
23311;DHT22;11828;51.508;18.118;2022-10-22T15:18:26;29.90;38.70
23311;DHT22;11828;51.508;18.118;2022-10-22T15:23:26;30.00;38.60
23311;DHT22;11828;51.508;18.118;2022-10-22T15:25:52;30.00;38.60
23311;DHT22;11828;51.508;18.118;2022-10-22T15:28:19;30.10;38.60
23311;DHT22;11828;51.508;18.118;2022-10-22T15:30:51;30.10;38.40
23311;DHT22;11828;51.508;18.118;2022-10-22T15:33:22;30.10;38.50
23311;DHT22;11828;51.508;18.118;2022-10-22T15:35:48;30.10;38.40
23311;DHT22;11828;51.508;18.118;2022-10-22T15:38:15;30.10;38.40
23311;DHT22;11828;51.508;18.118;2022-10-22T15:40:41;30.10;38.50
23311;DHT22;11828;51.508;18.118;2022-10-22T15:43:07;30.10;38.40
23311;DHT22;11828;51.508;18.118;2022-10-22T15:45:34;30.10;38.50
23311;DHT22;11828;51.508;18.118;2022-10-22T15:48:00;30.10;38.40
23311;DHT22;11828;51.508;18.118;2022-10-22T15:50:26;30.10;38.30
23311;DHT22;11828;51.508;18.118;2022-10-22T15:52:52;30.10;38.30
23311;DHT22;11828;51.508;18.118;2022-10-22T15:55:19;30.10;38.30
23311;DHT22;11828;51.508;18.118;2022-10-22T15:57:45;30.10;38.40
23311;DHT22;11828;51.508;18.118;2022-10-22T16:00:12;30.10;38.50
23311;DHT22;11828;51.508;18.118;2022-10-22T16:02:38;30.10;38.40
23311;DHT22;11828;51.508;18.118;2022-10-22T16:05:05;30.00;38.40
23311;DHT22;11828;51.508;18.118;2022-10-22T16:07:31;30.00;38.50
23311;DHT22;11828;51.508;18.118;2022-10-22T16:09:58;30.00;38.50
23311;DHT22;11828;51.508;18.118;2022-10-22T16:12:27;30.00;38.50
23311;DHT22;11828;51.508;18.118;2022-10-22T16:14:53;30.00;38.50
23311;DHT22;11828;51.508;18.118;2022-10-22T16:17:19;29.90;38.50
23311;DHT22;11828;51.508;18.118;2022-10-22T16:19:46;29.90;38.50
23311;DHT22;11828;51.508;18.118;2022-10-22T16:22:13;29.80;38.50
23311;DHT22;11828;51.508;18.118;2022-10-22T16:24:40;29.80;38.80
23311;DHT22;11828;51.508;18.118;2022-10-22T16:27:07;29.80;38.90
23311;DHT22;11828;51.508;18.118;2022-10-22T16:29:36;29.70;38.90
23311;DHT22;11828;51.508;18.118;2022-10-22T16:32:03;29.70;39.00
23311;DHT22;11828;51.508;18.118;2022-10-22T16:34:29;29.70;39.00
23311;DHT22;11828;51.508;18.118;2022-10-22T16:36:56;29.70;39.10
23311;DHT22;11828;51.508;18.118;2022-10-22T16:39:22;29.70;39.00
23311;DHT22;11828;51.508;18.118;2022-10-22T16:41:48;29.70;39.10
23311;DHT22;11828;51.508;18.118;2022-10-22T16:44:14;29.70;39.10
23311;DHT22;11828;51.508;18.118;2022-10-22T16:46:41;29.70;39.20
23311;DHT22;11828;51.508;18.118;2022-10-22T16:49:07;29.80;39.20
23311;DHT22;11828;51.508;18.118;2022-10-22T16:51:34;29.40;43.20
23311;DHT22;11828;51.508;18.118;2022-10-22T16:54:00;29.70;39.10
23311;DHT22;11828;51.508;18.118;2022-10-22T16:56:27;29.60;39.20
23311;DHT22;11828;51.508;18.118;2022-10-22T16:58:55;29.60;39.30
23311;DHT22;11828;51.508;18.118;2022-10-22T17:01:24;29.70;39.30
23311;DHT22;11828;51.508;18.118;2022-10-22T17:03:51;29.70;39.40
23311;DHT22;11828;51.508;18.118;2022-10-22T17:06:20;29.70;39.30
23311;DHT22;11828;51.508;18.118;2022-10-22T17:08:47;29.70;39.30
23311;DHT22;11828;51.508;18.118;2022-10-22T17:11:16;29.70;39.30
23311;DHT22;11828;51.508;18.118;2022-10-22T17:13:46;29.80;39.30
23311;DHT22;11828;51.508;18.118;2022-10-22T17:16:15;29.70;39.20
23311;DHT22;11828;51.508;18.118;2022-10-22T17:18:43;29.80;39.20
23311;DHT22;11828;51.508;18.118;2022-10-22T17:21:12;29.80;39.10
23311;DHT22;11828;51.508;18.118;2022-10-22T17:23:39;29.80;39.00
23311;DHT22;11828;51.508;18.118;2022-10-22T17:26:07;29.80;39.00
23311;DHT22;11828;51.508;18.118;2022-10-22T17:28:37;29.70;39.00
23311;DHT22;11828;51.508;18.118;2022-10-22T17:31:10;29.80;39.00
23311;DHT22;11828;51.508;18.118;2022-10-22T17:33:42;29.70;38.90
23311;DHT22;11828;51.508;18.118;2022-10-22T17:36:09;29.70;39.00
23311;DHT22;11828;51.508;18.118;2022-10-22T17:38:38;29.70;39.00
23311;DHT22;11828;51.508;18.118;2022-10-22T17:41:06;29.70;38.90
23311;DHT22;11828;51.508;18.118;2022-10-22T17:43:35;29.70;39.00
23311;DHT22;11828;51.508;18.118;2022-10-22T17:46:06;29.70;39.00
23311;DHT22;11828;51.508;18.118;2022-10-22T17:48:35;29.60;39.00
23311;DHT22;11828;51.508;18.118;2022-10-22T17:51:10;29.60;39.00